Northwest Florida Beaches International Airport

KECP · 佛罗里达州, 美国

METAR的历史 KECP · Northwest Florida Beaches International Airport

下面你可以看到过去几天的METARs。 选择年份以浏览从2007年开始的旧METAR。

2024年5月24日

时间 代码 天气 温度 能见度 天花板 METAR/SPECI
09:53
M
28 °C 10 mi 1.800 ft 170° 170° 8 kt METAR KECP 241453Z 17008KT 10SM BKN018 BKN031 28/22 A2995
08:53
M
27 °C 10 mi 1.800 ft 210° 210° 8 kt METAR KECP 241353Z 21008KT 10SM BKN018 BKN031 27/22 A2996
08:07
M
63 °C 10 mi 1.200 ft 210° 210° 7 - 15 kt METAR KECP 241307Z 21007G15KT 10SM BKN012 63/22 A2995
06:53
V
23 °C 10 mi - 120° 120° 13 - 20 kt METAR KECP 241153Z 12013G20KT 10SM CLR 23/21 A2984
06:36
V
22 °C 10 mi - 090° 090° 10 kt METAR KECP 241136Z 09010KT 10SM CLR 22/21 A2989
05:53
V
22 °C 9 mi - 360° 360° 0 kt METAR KECP 241053Z 00000KT 9SM CLR 22/21 A2994

2024年5月23日

时间 代码 天气 温度 能见度 天花板 METAR/SPECI
21:53
V
25 °C 10 mi - 130° 130° 3 kt METAR KECP 240253Z 13003KT 10SM CLR 25/23 A2996
19:53
V
69 °C 10 mi - 160° 160° 6 kt METAR KECP 240053Z 16006KT 10SM FEW014 69/24 A2993
17:53
V
29 °C 10 mi - 190° 190° 7 kt METAR KECP 232253Z 19007KT 10SM CLR 29/22 A2995
16:53
V
29 °C 10 mi - 170° 170° 9 kt METAR KECP 232153Z 17009KT 10SM CLR 29/23 A2997
15:53
V
29 °C 10 mi - 200° 200° 8 kt METAR KECP 232053Z 20008KT 10SM FEW027 SCT034 29/23 A2998
14:53
V
31 °C 10 mi - 180° 180° 11 kt METAR KECP 231953Z 18011KT 10SM FEW035 31/23 A2999
13:53
V
31 °C 10 mi - 153° 153° 12 - 18 kt METAR KECP 231853Z 15312G18KT 10SM CLR 31/21 A2999
12:53
V
31 °C 10 mi - 150° 150° 11 kt METAR KECP 231753Z 15011KT 10SM SCT027 31/23 A3000
11:53
V
29 °C 10 mi - 140° 140° 12 - 21 kt METAR KECP 231653Z 14012G21KT 10SM SCT027 29/23 A2999
09:52
M
28 °C 10 mi 2.000 ft 140° 140° 7 kt METAR KECP 231452Z 14007KT 10SM BKN020 28/23 A2999
08:53
V
26 °C 10 mi - Var Var 4 kt METAR KECP 231353Z VRB04KT 10SM CLR 26/23 A3001
07:56
V
23 °C 6 mi - 090° 090° 4 kt METAR KECP 231256Z 09004KT 6SM BR FEW002 23/20 A2999
06:58
L
20 °C ¾ mi 200 ft 360° 360° 0 kt METAR KECP 231158Z 00000KT 3/4SM BR VV002 20/20 A2999
05:59
L
20 °C ½ mi 100 ft 360° 360° 0 kt METAR KECP 231059Z 00000KT 1/2SM FG VV001 20/20 A2999

2024年5月22日

时间 代码 天气 温度 能见度 天花板 METAR/SPECI
22:02
V
23 °C 10 mi - 360° 360° 0 kt METAR KECP 230302Z 00000KT 10SM CLR 23/22 A3001
20:53
V
25 °C 10 mi - 360° 360° 0 kt METAR KECP 230153Z 00000KT 10SM CLR 25/23 A3000
19:53
V
26 °C 10 mi - 220° 220° 4 kt METAR KECP 230053Z 22004KT 10SM CLR 26/23 A2999
18:53
V
27 °C 10 mi - 190° 190° 6 kt METAR KECP 222353Z 19006KT 10SM CLR 27/23 A2997
17:53
V
28 °C 10 mi - 180° 180° 7 kt METAR KECP 222253Z 18007KT 10SM CLR 28/23 A2994
16:53
V
29 °C 10 mi - 160° 160° 11 kt METAR KECP 222153Z 16011KT 10SM FEW055 29/22 A2995
15:53
V
29 °C 10 mi 3.800 ft 180° 180° 9 kt METAR KECP 222053Z 18009KT 10SM FEW029 BKN038 29/22 A2996
14:53
V
29 °C 10 mi 3.700 ft 170° 170° 11 kt METAR KECP 221953Z 17011KT 10SM BKN037 BKN048 29/21 A2999
13:45
V
30 °C 10 mi - 160° 160° 12 kt METAR KECP 221845Z 16012KT 10SM SCT042 30/21 A2999
12:50
V
30 °C 10 mi - 170° 170° 11 kt METAR KECP 221750Z 17011KT 10SM SCT042 30/21 A3002
11:46
V
26 °C 10 mi - Var Var 3 kt METAR KECP 221646Z VRB03KT 10SM SCT042 26/22 A3003
10:50
V
26 °C 10 mi 3.500 ft 100° 100° 5 kt METAR KECP 221550Z 10005KT 10SM BKN035 BKN055 26/22 A3003
09:57
V
26 °C 10 mi - 100° 100° 5 kt METAR KECP 221457Z 10005KT 10SM SCT029 26/22 A3003
08:53
V
26 °C 10 mi - 080° 080° 5 kt METAR KECP 221353Z 08005KT 10SM CLR 26/22 A3003
07:50
V
23 °C 10 mi - 080° 080° 5 kt METAR KECP 221250Z 08005KT 10SM CLR 23/21 A3001
06:53
V
20 °C 7 mi - 030° 030° 5 kt METAR KECP 221153Z 03005KT 7SM BR CLR 20/20 A3000
05:45
V
20 °C 6 mi - 030° 030° 5 kt METAR KECP 221045Z 03005KT 6SM BR CLR 20/20 A2998
报告变更